Observations for SEATTLE-TACOMA INTL, WA (SEA)

KSEA 261853Z 22008KT 10SM BKN029 BKN034 BKN180 17/08 A3017 RMK AO2 SLP222 T01720078 
KSEA 261753Z 20006KT 10SM FEW025 BKN030 BKN180 15/07 A3017 RMK AO2 SLP221 T01500072 10156 20111 50005   
KSEA 261653Z 19005KT 10SM BKN023 BKN045 BKN160 13/07 A3017 RMK AO2 SLP221 T01330072 
KSEA 261553Z 19006KT 10SM BKN023 BKN034 BKN120 13/07 A3016 RMK AO2 SLP219 T01280067 
KSEA 261453Z 13005KT 10SM SCT017 BKN032 BKN100 13/07 A3015 RMK AO2 SLP215 T01280072 53012   
KSEA 261353Z 13006KT 10SM BKN029 BKN041 BKN080 11/07 A3013 RMK AO2 SLP209 T01110067 
KSEA 261253Z 12005KT 10SM BKN023 BKN039 OVC080 11/07 A3012 RMK AO2 SLP205 T01110067 
KSEA 261153Z 18003KT 10SM SCT029 BKN037 OVC050 11/07 A3012 RMK AO2 SLP204 T01110067 10139 20111 51010   
KSEA 261053Z 18005KT 10SM SCT028 OVC035 11/07 A3011 RMK AO2 SLP201 T01110067
KSEA 260953Z 22004KT 10SM FEW024 BKN037 OVC045 12/07 A3010 RMK AO2 SLP198 T01170067 
KSEA 260853Z 21006KT 10SM FEW024 BKN037 OVC045 12/07 A3009 RMK AO2 SLP193 T01170067 53009   
KSEA 260753Z 20007KT 10SM FEW032 BKN043 OVC065 12/07 A3007 RMK AO2 SLP189 T01220067 402000111   
KSEA 260653Z 24007KT 10SM BKN035 BKN060 13/07 A3007 RMK AO2 SLP187 T01330067
KSEA 260553Z 26005KT 10SM SCT035 BKN070 14/07 A3006 RMK AO2 SLP184 T01390072 10189 20139 51016  
KSEA 260453Z 23004KT 10SM OVC033 15/09 A3004 RMK AO2 SLP179 T01500089   
KSEA 260353Z 30003KT 10SM OVC035 17/06 A3003 RMK AO2 SLP175 T01670061   
KSEA 260253Z 02008KT 10SM BKN060 17/07 A3001 RMK AO2 SLP167 T01720067 55002 
KSEA 260153Z 01008KT 10SM FEW035 BKN050 18/09 A3001 RMK AO2 SLP166 T01830089
KSEA 260053Z 36006KT 10SM FEW032 BKN050 BKN250 19/09 A3001 RMK AO2 SLP168 T01890094 
KSEA 252353Z 01004KT 10SM FEW032 BKN050 BKN250 19/09 A3001 RMK AO2 SLP169 T01940094 10200 20139 58006   
KSEA 252253Z 33009KT 10SM FEW032 BKN048 19/09 A3003 RMK AO2 SLP174 T01890094
KSEA 252153Z 28007KT 250V320 10SM FEW026 SCT048 BKN250 18/09 A3003 RMK AO2 SLP173 T01830094 
KSEA 252053Z 26007KT 10SM SCT026 SCT047 BKN250 18/09 A3003 RMK AO2 SLP176 T01830094 56005   
KSEA 251953Z 27005KT 10SM FEW025 BKN046 17/09 A3004 RMK AO2 SLP177 T01670089
KSEA 251946Z VRB05KT 10SM SCT025 BKN046 16/09 A3004 RMK AO2 T01610089
KSEA 251853Z 24005KT 10SM BKN027 OVC045 15/09 A3004 RMK AO2 SLP178 T01500089